createdAt,value
2018-03-03T00:02:20.373Z,50.15
2018-03-03T00:04:49.404Z,51.90
2018-03-03T00:07:16.902Z,48.90
2018-03-03T00:09:44.747Z,49.00
2018-03-03T00:12:12.241Z,45.75
2018-03-03T00:14:39.758Z,47.13
2018-03-03T00:17:08.187Z,56.85
2018-03-03T00:19:35.724Z,52.17
2018-03-03T00:22:03.221Z,55.95
2018-03-03T00:24:30.721Z,55.28
2018-03-03T00:26:58.236Z,48.25
2018-03-03T00:29:26.516Z,47.28
2018-03-03T00:31:54.091Z,42.35
2018-03-03T00:34:21.596Z,41.35
2018-03-03T00:36:49.226Z,43.40
2018-03-03T00:39:16.726Z,60.03
2018-03-03T00:41:44.237Z,48.75
2018-03-03T00:44:11.742Z,47.62
2018-03-03T00:46:39.224Z,44.83
2018-03-03T00:49:07.538Z,51.95
2018-03-03T00:51:35.872Z,49.08
2018-03-03T00:54:03.395Z,49.30
2018-03-03T00:56:30.876Z,44.17
2018-03-03T00:58:58.470Z,49.03
2018-03-03T01:01:26.190Z,57.50
2018-03-03T01:03:54.470Z,56.33
2018-03-03T01:06:22.735Z,48.97
2018-03-03T01:08:50.229Z,61.53
2018-03-03T01:11:18.508Z,42.70
2018-03-03T01:13:46.796Z,44.83
2018-03-03T01:16:14.299Z,51.85
2018-03-03T01:18:41.809Z,50.15
2018-03-03T01:21:09.314Z,45.63
2018-03-03T01:23:37.563Z,49.45
2018-03-03T01:26:05.077Z,62.38
2018-03-03T01:28:33.333Z,46.88
2018-03-03T01:31:00.857Z,50.95
2018-03-03T01:33:28.350Z,49.55
2018-03-03T01:35:55.848Z,48.85
2018-03-03T01:38:23.389Z,56.40
2018-03-03T01:40:50.932Z,46.42
2018-03-03T01:43:18.507Z,46.60
2018-03-03T01:45:46.185Z,48.05
2018-03-03T01:48:13.692Z,46.85
2018-03-03T01:50:41.309Z,47.83
2018-03-03T01:53:09.590Z,48.17
2018-03-03T01:55:37.088Z,47.65
2018-03-03T01:58:04.653Z,50.58
2018-03-03T02:00:32.136Z,50.17
2018-03-03T02:02:59.735Z,52.47
2018-03-03T02:05:27.260Z,47.08
2018-03-03T02:07:55.533Z,45.42
2018-03-03T02:10:23.786Z,54.08
2018-03-03T02:12:51.295Z,50.80
2018-03-03T02:15:19.573Z,47.70
2018-03-03T02:17:47.121Z,44.03
2018-03-03T02:20:14.605Z,49.42
2018-03-03T02:22:42.171Z,49.13
2018-03-03T02:25:09.656Z,57.50
2018-03-03T02:27:37.343Z,54.42
2018-03-03T02:30:05.602Z,59.45
2018-03-03T02:32:33.117Z,46.33
2018-03-03T02:35:00.619Z,57.13
2018-03-03T02:37:28.166Z,48.87
2018-03-03T02:39:55.720Z,48.53
2018-03-03T02:42:23.241Z,43.50
2018-03-03T02:44:50.732Z,45.33
2018-03-03T02:47:18.363Z,50.95
2018-03-03T02:49:45.990Z,47.15
2018-03-03T02:52:13.572Z,43.15
2018-03-03T02:54:41.889Z,58.75
2018-03-03T02:57:09.376Z,48.13
2018-03-03T02:59:36.900Z,41.40
2018-03-03T03:02:05.154Z,44.50
2018-03-03T03:04:33.281Z,48.65
2018-03-03T03:07:00.840Z,50.88
2018-03-03T03:09:29.113Z,45.35
2018-03-03T03:11:56.632Z,44.53
2018-03-03T03:14:24.132Z,37.65
2018-03-03T03:16:51.625Z,46.42
2018-03-03T03:19:19.161Z,48.03
2018-03-03T03:21:46.694Z,42.85
2018-03-03T03:24:14.947Z,38.15
2018-03-03T03:26:42.442Z,46.50
2018-03-03T03:29:09.944Z,49.03
2018-03-03T03:31:37.439Z,41.17
2018-03-03T03:34:04.938Z,43.28
2018-03-03T03:36:32.446Z,42.08
2018-03-03T03:39:00.007Z,45.00
2018-03-03T03:41:27.511Z,42.55
2018-03-03T03:43:54.996Z,48.92
2018-03-03T03:46:22.601Z,44.30
2018-03-03T03:48:50.867Z,43.15
2018-03-03T03:51:18.362Z,52.92
2018-03-03T03:53:46.626Z,51.88
2018-03-03T03:56:14.141Z,41.92
2018-03-03T03:58:41.900Z,46.28
2018-03-03T04:01:10.172Z,46.78
2018-03-03T04:03:37.668Z,46.63
2018-03-03T04:06:05.188Z,45.70
2018-03-03T04:08:32.969Z,39.90
2018-03-03T04:11:00.486Z,42.03
2018-03-03T04:13:27.979Z,44.17
2018-03-03T04:15:55.489Z,52.03
2018-03-03T04:18:22.977Z,48.35
2018-03-03T04:20:51.279Z,44.83
2018-03-03T04:23:18.761Z,57.85
2018-03-03T04:25:46.273Z,42.03
2018-03-03T04:28:13.804Z,44.10
2018-03-03T04:30:41.471Z,47.67
2018-03-03T04:33:08.970Z,43.15
2018-03-03T04:35:36.519Z,51.42
2018-03-03T04:38:04.038Z,45.35
2018-03-03T04:40:31.537Z,46.75
2018-03-03T04:42:59.797Z,50.08
2018-03-03T04:45:27.372Z,47.47
2018-03-03T04:47:54.875Z,45.05
2018-03-03T04:50:23.168Z,50.30
2018-03-03T04:52:50.684Z,40.58
2018-03-03T04:55:18.198Z,48.42
2018-03-03T04:57:46.444Z,44.30
2018-03-03T05:00:29.103Z,41.10
2018-03-03T05:02:59.737Z,37.60
2018-03-03T05:05:46.086Z,36.40
2018-03-03T05:08:20.294Z,45.33
2018-03-03T05:10:48.548Z,39.22
2018-03-03T05:13:21.748Z,44.90
2018-03-03T05:16:01.939Z,45.20
2018-03-03T05:18:50.933Z,36.92
2018-03-03T05:21:24.919Z,41.13
2018-03-03T05:23:58.062Z,45.22
2018-03-03T05:26:31.274Z,43.25
2018-03-03T05:29:04.512Z,52.35
2018-03-03T05:31:37.820Z,41.80
2018-03-03T05:34:11.344Z,50.85
2018-03-03T05:36:42.636Z,42.72
2018-03-03T05:39:16.634Z,46.75
2018-03-03T05:41:49.952Z,51.78
2018-03-03T05:44:23.158Z,43.60
2018-03-03T05:46:56.376Z,48.85
2018-03-03T05:49:44.485Z,46.88
2018-03-03T05:52:12.013Z,37.97
2018-03-03T05:54:45.862Z,41.80
2018-03-03T05:57:28.247Z,45.12
2018-03-03T06:00:02.317Z,42.13
2018-03-03T06:02:50.678Z,50.17
2018-03-03T06:05:23.827Z,43.92
2018-03-03T06:07:57.926Z,45.97
2018-03-03T06:10:25.466Z,47.15
2018-03-03T06:12:52.970Z,45.03
2018-03-03T06:15:20.585Z,45.15
2018-03-03T06:17:48.856Z,45.97
2018-03-03T06:20:16.382Z,48.92
2018-03-03T06:22:43.881Z,42.50
2018-03-03T06:25:11.565Z,44.03
2018-03-03T06:27:39.071Z,51.88
2018-03-03T06:30:06.573Z,41.47
2018-03-03T06:32:34.103Z,44.90
2018-03-03T06:35:02.482Z,63.30
2018-03-03T06:37:30.829Z,48.30
2018-03-03T06:39:58.574Z,49.22
2018-03-03T06:42:26.205Z,41.83
2018-03-03T06:44:53.769Z,47.50
2018-03-03T06:47:21.357Z,48.00
2018-03-03T06:49:49.642Z,40.22
2018-03-03T06:52:17.197Z,47.17
2018-03-03T06:54:44.795Z,45.22
2018-03-03T06:57:12.307Z,48.78
2018-03-03T06:59:39.835Z,49.63
2018-03-03T07:02:08.115Z,41.78
2018-03-03T07:04:35.632Z,40.75
2018-03-03T07:07:03.138Z,41.78
2018-03-03T07:09:30.635Z,46.60
2018-03-03T07:11:58.152Z,45.67
2018-03-03T07:14:29.257Z,45.35
2018-03-03T07:16:57.569Z,47.72
2018-03-03T07:19:25.859Z,46.33
2018-03-03T07:21:53.371Z,45.95
2018-03-03T07:24:20.880Z,45.92
2018-03-03T07:26:48.461Z,43.38
2018-03-03T07:29:16.714Z,48.38
2018-03-03T07:34:19.031Z,48.20
2018-03-03T07:36:46.539Z,50.55
2018-03-03T07:39:14.045Z,41.95
2018-03-03T07:41:41.573Z,48.13
2018-03-03T07:44:09.826Z,45.95
2018-03-03T07:46:37.329Z,52.28
2018-03-03T07:49:05.594Z,49.53
2018-03-03T07:51:33.292Z,49.30
2018-03-03T07:54:01.552Z,45.35
2018-03-03T07:56:41.380Z,45.17
2018-03-03T07:59:08.875Z,42.22
2018-03-03T08:01:36.375Z,52.03
2018-03-03T08:04:03.878Z,50.97
2018-03-03T08:06:31.463Z,49.00
2018-03-03T08:08:58.969Z,42.72
2018-03-03T08:11:26.552Z,46.40
2018-03-03T08:13:54.212Z,45.10
2018-03-03T08:16:21.827Z,43.63
2018-03-03T08:18:50.117Z,45.65
2018-03-03T08:21:18.373Z,43.22
2018-03-03T08:23:46.004Z,43.85
2018-03-03T08:26:13.537Z,45.50
2018-03-03T08:28:41.935Z,41.35
2018-03-03T08:31:10.230Z,38.65
2018-03-03T08:33:37.870Z,42.45
2018-03-03T08:36:06.137Z,48.00
2018-03-03T08:38:33.750Z,41.85
2018-03-03T08:41:02.078Z,43.42
2018-03-03T08:43:29.764Z,37.72
2018-03-03T08:45:57.258Z,40.45
2018-03-03T08:48:24.791Z,39.92
2018-03-03T08:50:52.304Z,39.00
2018-03-03T08:53:19.874Z,40.97
2018-03-03T08:55:47.369Z,42.88
2018-03-03T08:58:15.683Z,42.72
2018-03-03T09:00:43.197Z,34.65
2018-03-03T09:03:10.836Z,30.80
2018-03-03T09:05:38.351Z,37.67
2018-03-03T09:08:05.874Z,33.50
2018-03-03T09:10:33.368Z,33.97
2018-03-03T09:13:00.900Z,39.15
2018-03-03T09:15:28.436Z,40.42
2018-03-03T09:17:55.980Z,31.23
2018-03-03T09:20:23.491Z,35.15
2018-03-03T09:22:51.045Z,35.67
2018-03-03T09:25:19.319Z,32.47
2018-03-03T09:27:46.863Z,32.33
2018-03-03T09:30:14.396Z,34.45
2018-03-03T09:32:41.985Z,37.88
2018-03-03T09:35:09.507Z,32.42
2018-03-03T09:37:37.117Z,29.75
2018-03-03T09:40:04.673Z,31.50
2018-03-03T09:42:33.006Z,33.25
2018-03-03T09:45:00.515Z,33.45
2018-03-03T09:47:28.088Z,38.15
2018-03-03T09:49:55.587Z,37.90
2018-03-03T09:52:23.876Z,40.63
2018-03-03T09:54:52.139Z,35.17
2018-03-03T09:57:20.423Z,35.80
2018-03-03T09:59:47.928Z,40.38
2018-03-03T10:02:16.525Z,34.28
2018-03-03T10:04:44.808Z,36.25
2018-03-03T10:07:13.115Z,42.22
2018-03-03T10:09:41.527Z,35.80
2018-03-03T10:12:09.049Z,41.42
2018-03-03T10:14:37.439Z,37.90
2018-03-03T10:17:06.443Z,38.60
2018-03-03T10:19:34.706Z,40.92
2018-03-03T10:22:02.240Z,42.10
2018-03-03T10:24:29.873Z,43.20
2018-03-03T10:26:58.195Z,36.80
2018-03-03T10:29:25.719Z,39.07
2018-03-03T10:31:53.221Z,37.63
2018-03-03T10:34:21.564Z,38.07
2018-03-03T10:36:49.182Z,96.43
2018-03-03T10:39:17.445Z,64.77
2018-03-03T10:44:18.928Z,32.27
2018-03-03T10:46:46.477Z,42.77
2018-03-03T10:49:14.026Z,40.77
2018-03-03T10:51:41.610Z,35.67
2018-03-03T10:54:09.110Z,38.50
2018-03-03T10:56:36.628Z,34.73
2018-03-03T10:59:04.134Z,39.50
2018-03-03T11:01:31.645Z,37.90
2018-03-03T11:03:59.926Z,35.93
2018-03-03T11:06:27.564Z,38.53
2018-03-03T11:08:55.107Z,36.80
2018-03-03T11:11:22.778Z,32.90
2018-03-03T11:13:50.325Z,44.83
2018-03-03T11:16:18.603Z,44.73
2018-03-03T11:18:46.112Z,43.47
2018-03-03T11:21:13.613Z,34.33
2018-03-03T11:23:41.161Z,35.93
2018-03-03T11:26:08.831Z,34.27
2018-03-03T11:28:36.367Z,35.20
2018-03-03T11:31:04.661Z,37.70
2018-03-03T11:33:33.087Z,46.37
2018-03-03T11:36:00.631Z,37.00
2018-03-03T11:38:28.897Z,38.00
2018-03-03T11:40:56.541Z,37.00
2018-03-03T11:43:24.040Z,35.83
2018-03-03T11:45:51.838Z,37.83
2018-03-03T11:48:20.124Z,42.53
2018-03-03T11:50:48.418Z,38.83
2018-03-03T11:53:16.684Z,36.87
2018-03-03T11:55:44.199Z,37.00
2018-03-03T11:58:11.739Z,35.27
2018-03-03T12:00:40.008Z,43.53
2018-03-03T12:03:07.506Z,46.10
2018-03-03T12:05:35.795Z,37.80
2018-03-03T12:08:04.075Z,35.93
2018-03-03T12:10:32.826Z,38.07
2018-03-03T12:13:00.310Z,36.60
2018-03-03T12:15:27.823Z,44.60
2018-03-03T12:17:56.098Z,46.33
2018-03-03T12:20:24.396Z,38.07
2018-03-03T12:22:52.707Z,41.83
2018-03-03T12:25:20.465Z,42.73
2018-03-03T12:27:48.747Z,41.03
2018-03-03T12:30:17.025Z,40.87
2018-03-03T12:32:44.516Z,39.80
2018-03-03T12:35:12.038Z,37.77
2018-03-03T12:37:39.686Z,35.53
2018-03-03T12:40:07.202Z,37.27
2018-03-03T12:42:34.716Z,34.33
2018-03-03T12:45:02.440Z,31.07
2018-03-03T12:47:29.929Z,39.73
2018-03-03T12:49:57.471Z,31.97
2018-03-03T12:52:25.075Z,33.37
2018-03-03T12:54:53.384Z,38.27
2018-03-03T12:57:20.877Z,36.10
2018-03-03T12:59:48.469Z,36.03
2018-03-03T13:02:15.930Z,35.80
2018-03-03T13:04:43.547Z,34.07
2018-03-03T13:07:11.929Z,34.40
2018-03-03T13:09:40.182Z,33.30
2018-03-03T13:12:07.798Z,33.10
2018-03-03T13:14:36.067Z,33.80
2018-03-03T13:17:03.572Z,34.47
2018-03-03T13:19:31.090Z,30.47
2018-03-03T13:21:58.585Z,35.00
2018-03-03T13:24:26.115Z,33.00
2018-03-03T13:26:53.814Z,38.77
2018-03-03T13:29:21.357Z,34.37
2018-03-03T13:31:48.862Z,34.90
2018-03-03T13:34:17.877Z,34.97
2018-03-03T13:36:47.938Z,41.27
2018-03-03T13:39:15.476Z,35.23
2018-03-03T13:41:42.987Z,40.23
2018-03-03T13:44:10.506Z,41.00
2018-03-03T13:46:38.031Z,37.27
2018-03-03T13:49:05.558Z,44.87
2018-03-03T13:51:33.829Z,36.87
2018-03-03T13:54:01.416Z,38.27
2018-03-03T13:56:28.951Z,41.63
2018-03-03T13:58:56.620Z,37.17
2018-03-03T14:01:24.129Z,32.77
2018-03-03T14:03:51.734Z,37.23
2018-03-03T14:06:19.314Z,34.20
2018-03-03T14:08:47.602Z,34.83
2018-03-03T14:11:15.169Z,36.60
2018-03-03T14:13:43.480Z,35.73
2018-03-03T14:16:11.326Z,34.70
2018-03-03T14:18:39.594Z,31.00
2018-03-03T14:21:07.160Z,37.63
2018-03-03T14:23:34.863Z,40.13
2018-03-03T14:26:03.166Z,43.13
2018-03-03T14:28:30.719Z,40.40
2018-03-03T14:30:58.991Z,34.77
2018-03-03T14:33:26.523Z,28.87
2018-03-03T14:35:54.144Z,39.10
2018-03-03T14:38:22.529Z,32.37
2018-03-03T14:40:50.344Z,31.27
2018-03-03T14:43:18.038Z,35.23
2018-03-03T14:45:45.584Z,32.60
2018-03-03T14:48:13.135Z,38.67
2018-03-03T14:50:41.585Z,27.60
2018-03-03T14:53:09.096Z,38.83
2018-03-03T14:55:37.455Z,32.17
2018-03-03T14:58:04.993Z,39.60
2018-03-03T15:00:32.528Z,34.13
2018-03-03T15:03:00.816Z,33.27
2018-03-03T15:05:29.195Z,30.80
2018-03-03T15:07:56.774Z,36.70
2018-03-03T15:10:25.141Z,32.37
2018-03-03T15:12:52.824Z,32.50
2018-03-03T15:15:20.380Z,33.63
2018-03-03T15:17:47.949Z,35.20
2018-03-03T15:20:15.562Z,38.23
2018-03-03T15:22:44.010Z,32.33
2018-03-03T15:25:12.338Z,34.67
2018-03-03T15:27:40.650Z,30.97
2018-03-03T15:30:08.763Z,34.70
2018-03-03T15:32:36.359Z,36.50
2018-03-03T15:35:03.912Z,34.23
2018-03-03T15:37:31.444Z,37.97
2018-03-03T15:39:59.016Z,33.60
2018-03-03T15:42:26.587Z,31.10
2018-03-03T15:44:54.383Z,34.70
2018-03-03T15:47:22.148Z,38.63
2018-03-03T15:49:49.693Z,32.47
2018-03-03T15:52:18.807Z,37.10
2018-03-03T15:54:47.302Z,36.17
2018-03-03T15:57:15.632Z,33.93
2018-03-03T15:59:43.389Z,38.73
2018-03-03T16:02:11.059Z,37.07
2018-03-03T16:04:38.587Z,36.57
2018-03-03T16:07:06.344Z,32.70
2018-03-03T16:09:34.130Z,36.10
2018-03-03T16:12:02.103Z,35.00
2018-03-03T16:14:30.114Z,33.47
2018-03-03T16:16:58.075Z,33.30
2018-03-03T16:19:26.155Z,35.97
2018-03-03T16:21:54.130Z,38.37
2018-03-03T16:24:22.483Z,32.60
2018-03-03T16:26:50.176Z,29.63
2018-03-03T16:29:17.823Z,31.93
2018-03-03T16:31:45.343Z,33.53
2018-03-03T16:34:12.916Z,30.97
2018-03-03T16:36:40.607Z,39.50
2018-03-03T16:39:08.140Z,50.10
2018-03-03T16:41:35.754Z,33.00
2018-03-03T16:44:04.084Z,29.80
2018-03-03T16:46:31.672Z,28.57
2018-03-03T16:48:59.446Z,31.40
2018-03-03T16:51:26.842Z,33.57
2018-03-03T16:53:54.398Z,41.27
2018-03-03T16:56:22.028Z,38.87
2018-03-03T16:58:49.597Z,37.00
2018-03-03T17:01:17.148Z,32.25
2018-03-03T17:03:45.415Z,42.92
2018-03-03T17:06:13.048Z,31.42
2018-03-03T17:08:40.590Z,33.72
2018-03-03T17:11:08.948Z,33.73
2018-03-03T17:13:36.911Z,31.60
2018-03-03T17:16:04.436Z,32.50
2018-03-03T17:18:32.947Z,35.92
2018-03-03T17:21:00.541Z,40.35
2018-03-03T17:23:28.592Z,36.38
2018-03-03T17:25:56.378Z,33.28
2018-03-03T17:28:23.956Z,34.80
2018-03-03T17:30:51.627Z,33.35
2018-03-03T17:33:19.296Z,33.38
2018-03-03T17:35:47.095Z,39.30
2018-03-03T17:38:14.709Z,32.28
2018-03-03T17:40:42.432Z,39.00
2018-03-03T17:43:10.000Z,32.70
2018-03-03T17:45:38.286Z,44.03
2018-03-03T17:48:06.120Z,34.25
2018-03-03T17:50:34.576Z,32.90
2018-03-03T17:53:02.137Z,32.00
2018-03-03T17:55:29.925Z,35.03
2018-03-03T17:57:57.560Z,37.15
2018-03-03T18:00:25.352Z,35.80
2018-03-03T18:02:52.931Z,35.70
2018-03-03T18:05:20.511Z,30.88
2018-03-03T18:07:48.062Z,34.42
2018-03-03T18:10:16.476Z,37.60
2018-03-03T18:12:44.073Z,38.53
2018-03-03T18:15:11.643Z,35.83
2018-03-03T18:17:39.261Z,31.30
2018-03-03T18:20:06.953Z,31.17
2018-03-03T18:22:34.742Z,36.08
2018-03-03T18:25:02.299Z,32.65
2018-03-03T18:27:29.851Z,38.05
2018-03-03T18:29:57.581Z,40.50
2018-03-03T18:32:25.069Z,36.03
2018-03-03T18:34:52.667Z,36.80
2018-03-03T18:37:21.871Z,33.65
2018-03-03T18:39:50.185Z,32.80
2018-03-03T18:42:17.764Z,35.50
2018-03-03T18:44:45.328Z,39.42
2018-03-03T18:47:12.866Z,38.10
2018-03-03T18:49:41.235Z,39.30
2018-03-03T18:52:08.841Z,32.50
2018-03-03T18:54:37.254Z,30.73
2018-03-03T18:57:04.798Z,34.40
2018-03-03T18:59:33.425Z,31.65
2018-03-03T19:02:01.211Z,32.45
2018-03-03T19:04:28.927Z,41.00
2018-03-03T19:06:57.465Z,37.58
2018-03-03T19:09:25.096Z,37.30
2018-03-03T19:11:53.313Z,34.85
2018-03-03T19:14:22.391Z,30.67
2018-03-03T19:16:50.137Z,33.45
2018-03-03T19:19:18.006Z,35.88
2018-03-03T19:21:45.605Z,36.92
2018-03-03T19:24:13.161Z,37.25
2018-03-03T19:26:40.916Z,43.28
2018-03-03T19:29:08.565Z,39.92
2018-03-03T19:31:37.066Z,36.85
2018-03-03T19:34:04.688Z,35.22
2018-03-03T19:36:32.315Z,33.92
2018-03-03T19:39:00.098Z,40.05
2018-03-03T19:41:27.777Z,38.70
2018-03-03T19:43:55.376Z,32.10
2018-03-03T19:46:23.154Z,34.08
2018-03-03T19:48:50.756Z,36.35
2018-03-03T19:51:18.518Z,40.90
2018-03-03T19:53:47.640Z,35.58
2018-03-03T19:56:15.297Z,35.70
2018-03-03T19:58:43.030Z,29.37
2018-03-03T20:01:10.640Z,39.33
2018-03-03T20:03:38.236Z,41.95
2018-03-03T20:06:05.849Z,40.20
2018-03-03T20:08:33.616Z,35.58
2018-03-03T20:11:01.434Z,36.53
2018-03-03T20:13:29.029Z,32.45
2018-03-03T20:15:56.694Z,39.20
2018-03-03T20:18:24.367Z,35.72
2018-03-03T20:20:52.326Z,34.95
2018-03-03T20:23:20.202Z,39.17
2018-03-03T20:25:47.749Z,35.47
2018-03-03T20:28:15.329Z,37.88
2018-03-03T20:30:42.899Z,40.50
2018-03-03T20:33:10.517Z,41.10
2018-03-03T20:35:38.095Z,38.80
2018-03-03T20:38:06.884Z,39.17
2018-03-03T20:40:34.525Z,40.50
2018-03-03T20:43:02.198Z,36.05
2018-03-03T20:45:29.768Z,37.72
2018-03-03T20:47:57.322Z,32.72
2018-03-03T20:50:24.931Z,38.03
2018-03-03T20:52:52.608Z,34.80
2018-03-03T20:55:20.282Z,37.05
2018-03-03T20:57:47.969Z,41.05
2018-03-03T21:00:15.635Z,37.90
2018-03-03T21:02:43.179Z,37.63
2018-03-03T21:05:10.928Z,34.50
2018-03-03T21:07:39.209Z,36.13
2018-03-03T21:10:07.518Z,40.83
2018-03-03T21:12:46.629Z,38.53
2018-03-03T21:15:14.639Z,39.90
2018-03-03T21:17:42.196Z,35.97
2018-03-03T21:20:10.487Z,45.47
2018-03-03T21:22:39.339Z,37.10
2018-03-03T21:25:06.985Z,41.45
2018-03-03T21:27:34.857Z,37.42
2018-03-03T21:30:02.429Z,37.47
2018-03-03T21:32:30.111Z,43.90
2018-03-03T21:34:57.983Z,35.90
2018-03-03T21:37:25.594Z,39.28
2018-03-03T21:39:53.332Z,38.55
2018-03-03T21:42:21.021Z,43.78
2018-03-03T21:44:48.600Z,39.72
2018-03-03T21:47:16.202Z,38.78
2018-03-03T21:49:43.738Z,43.13
2018-03-03T21:52:11.395Z,40.25
2018-03-03T21:54:38.921Z,42.17
2018-03-03T21:57:07.220Z,36.03
2018-03-03T21:59:34.800Z,43.65
2018-03-03T22:02:02.383Z,43.58
2018-03-03T22:04:30.205Z,40.42
2018-03-03T22:06:57.761Z,40.80
2018-03-03T22:09:25.294Z,41.13
2018-03-03T22:11:53.595Z,41.42
2018-03-03T22:14:21.883Z,41.08
2018-03-03T22:16:50.224Z,40.50
2018-03-03T22:19:17.733Z,28.75
2018-03-03T22:21:46.015Z,48.10
2018-03-03T22:24:15.238Z,45.45
2018-03-03T22:26:42.853Z,45.03
2018-03-03T22:29:10.384Z,47.03
2018-03-03T22:31:38.673Z,49.60
2018-03-03T22:34:06.259Z,40.37
2018-03-03T22:36:33.852Z,48.40
2018-03-03T22:39:01.410Z,46.63
2018-03-03T22:41:28.935Z,44.97
2018-03-03T22:43:56.417Z,45.07
2018-03-03T22:46:24.744Z,44.10
2018-03-03T22:48:53.154Z,44.63
2018-03-03T22:51:20.675Z,43.97
2018-03-03T22:53:48.965Z,45.17
2018-03-03T22:56:16.517Z,44.72
2018-03-03T22:58:44.276Z,48.10
2018-03-03T23:01:11.795Z,45.50
2018-03-03T23:03:39.299Z,46.37
2018-03-03T23:06:06.812Z,40.47
2018-03-03T23:08:35.327Z,44.88
2018-03-03T23:11:02.852Z,42.03
2018-03-03T23:13:30.379Z,45.00
2018-03-03T23:15:57.939Z,43.47
2018-03-03T23:18:25.492Z,42.45
2018-03-03T23:20:53.793Z,44.47
2018-03-03T23:23:22.066Z,42.95
2018-03-03T23:25:49.621Z,40.03
2018-03-03T23:28:17.895Z,40.72
2018-03-03T23:30:45.408Z,41.75
2018-03-03T23:33:13.685Z,48.00
2018-03-03T23:35:41.998Z,40.95
2018-03-03T23:38:09.548Z,39.47
2018-03-03T23:40:38.152Z,45.15
2018-03-03T23:43:06.407Z,45.75
2018-03-03T23:45:34.081Z,45.20
2018-03-03T23:48:01.598Z,41.90
2018-03-03T23:50:29.223Z,36.10
2018-03-03T23:52:56.852Z,40.30
2018-03-03T23:55:24.352Z,41.65
2018-03-03T23:57:51.882Z,52.22
